Austin, TX (78779)

9:09 AM CST on March 02, 2015 (GMT -0600)
Highland Park West and Balcones Area | Change Station
CLOSE
Current Station
Personal Weather Station
Location: Austin, TX
Elevation: 722 ft
Nearby Weather Stations

Elev 722 ft 30.33 °N, 97.76 °W | Updated 16 seconds ago

Overcast
Overcast
39.0 °F
Feels Like 39 °F
N
0.9
Wind Variable Wind from NW
Gusts 3.0 mph

Today
High -- | Low -- °F
--% Chance of Precip.
Yesterday
High -- | Low -- °F
Precip. -- in
6:56 AM 6:30 PM
Waxing Gibbous, 91% visible
Pressure 30.38 in
Visibility 4.0 miles
Clouds Overcast 800 ft
Windchill 39 °F
Dew Point 38 °F
Humidity 96%
Rainfall 0.00 in
Snow Depth Not available.
UV 1 out of 12
Pollen 7.90 out of 12
Air Quality Not available.
Flu Activity Not available.
METAR KATT 021451Z AUTO VRB05KT 4SM BR OVC008 04/03 A3036 RMK AO2 CIG 005V010 SLP287 T00390033 52012

More Conditions Fewer Conditions

Pressure 30.38 in
Visibility 4.0 miles
Clouds Overcast 800 ft
Windchill 39 °F
Dew Point 38 °F
Humidity 96%
Rainfall 0.00 in
Snow Depth Not available.
UV 1 out of 12
Pollen 7.90 out of 12
Air Quality Not available.
Flu Activity Not available.
METAR KATT 021451Z AUTO VRB05KT 4SM BR OVC008 04/03 A3036 RMK AO2 CIG 005V010 SLP287 T00390033 52012

More Conditions Fewer Conditions

Nowcast | as of 7:35 am CST on March 2, 2015

Through 10 am...patchy drizzle will continue across The Hill Country and along and east of Interstate 35. Rainfall amounts will be light...amounting from a trace to a couple hundredths of an inch.

×

10-Day Weather Forecast

Almanac

Astronomy

Mar. 02, 2015 Rise Set
Actual Time
Civil Twilight
Nautical Twilight
Astronomical Twilight
Moon
Length of Visible Light
Length of Day
Tomorrow will be .
, % of the Moon is Illuminated

Today's Extremes

State Highs State Lows

Community

WunderPhotos

Upload Photos

1,801,798 photos uploaded!

WunderBlogs® & News

Nearby

Air Quality

  Air Quality AQ Index Pollutant
Not available.

Snow Depth

Station Depth Elevation

Earthquake Activity

City Distance Mag. Time & Date
Minimum magnitude displayed is 2.5.

Coastal Water Temperatures

Place Temperature

Nearby Weather Stations